Terminal Aerodrome Forecast
Issued by NWS

Home | Current Version | Previous Version | Text Only | Print | Product List | Glossary On
Versions: 1 2 3 4 5 6 7 8 9 10 11 12 13 14 15 16 17
000
FTUS46 KOTX 202320
TAFMWH
TAF
KMWH 202320Z 2100/2124 21005KT P6SM BKN100 BKN200
     FM210800 11005KT P6SM SCT070 BKN150
     FM211700 13008KT P6SM -RA OVC060
     FM212100 15010KT 6SM -RA BR BKN025 OVC040=

USA.gov is the U.S. government's official web portal to all federal, state and local government web resources and services.